Time;durP1;ratioP1;P1;durP2;ratioP2;P2;SDS_P1;SDS_P2;PMS_P1;PMS_P2;Temp;Humidity;BMP_temperature;BMP_pressure;BME280_temperature;BME280_humidity;BME280_pressure;Samples;Min_cycle;Max_cycle;Signal;HPM_P1;HPM_P2
2023/01/02 00:00:55;;;;;;;8.98;3.33;;;12.20;99.90;;;;;;4950343;28;20050;-66
2023/01/02 00:03:20;;;;;;;9.82;3.42;;;12.20;99.90;;;;;;4935423;29;20047;-66
2023/01/02 00:05:46;;;;;;;10.43;3.17;;;12.20;99.90;;;;;;4966902;28;20049;-65
2023/01/02 00:08:12;;;;;;;10.65;2.95;;;12.10;99.90;;;;;;4967561;28;20361;-64
2023/01/02 00:10:37;;;;;;;7.53;2.70;;;12.10;99.90;;;;;;4949268;28;20043;-65
2023/01/02 00:13:03;;;;;;;9.85;2.70;;;12.10;99.90;;;;;;4932994;29;20051;-65
2023/01/02 00:15:29;;;;;;;11.80;3.38;;;12.00;99.90;;;;;;4932960;29;20051;-64
2023/01/02 00:17:55;;;;;;;14.75;3.78;;;12.00;99.90;;;;;;4950362;29;20047;-65
2023/01/02 00:20:20;;;;;;;9.38;3.05;;;11.90;99.90;;;;;;4949731;29;20126;-66
2023/01/02 00:22:46;;;;;;;10.63;2.83;;;11.90;99.90;;;;;;4965560;28;20043;-66
2023/01/02 00:25:12;;;;;;;12.27;3.42;;;11.90;99.90;;;;;;4948120;28;20785;-67
2023/01/02 00:27:38;;;;;;;13.90;3.28;;;11.90;99.90;;;;;;4950187;28;20054;-65
2023/01/02 00:30:04;;;;;;;6.70;3.00;;;11.90;99.90;;;;;;4949950;29;20043;-65
2023/01/02 00:32:30;;;;;;;9.45;3.35;;;11.90;99.90;;;;;;4931382;29;20054;-65
2023/01/02 00:34:55;;;;;;;9.90;3.47;;;11.90;99.90;;;;;;4946523;29;20481;-65
2023/01/02 00:37:21;;;;;;;12.73;3.70;;;11.90;99.90;;;;;;4965738;28;20465;-65
2023/01/02 00:39:47;;;;;;;10.48;3.63;;;11.90;99.90;;;;;;4965123;28;20332;-71
2023/01/02 00:42:12;;;;;;;10.60;3.70;;;11.80;99.90;;;;;;4934330;28;20483;-71
2023/01/02 00:44:38;;;;;;;17.17;7.05;;;11.70;99.90;;;;;;4948359;28;20065;-65
2023/01/02 00:47:04;;;;;;;14.98;4.93;;;11.70;99.90;;;;;;4959623;28;20414;-65
2023/01/02 00:49:30;;;;;;;9.55;3.03;;;11.70;99.90;;;;;;4944684;29;20044;-66
2023/01/02 00:51:55;;;;;;;8.82;3.40;;;11.70;99.90;;;;;;4975091;28;20047;-65
2023/01/02 00:54:21;;;;;;;12.70;3.60;;;11.70;99.90;;;;;;4932675;29;20051;-65
2023/01/02 00:56:47;;;;;;;10.27;3.13;;;11.70;99.90;;;;;;4945929;28;20047;-64
2023/01/02 00:59:13;;;;;;;10.05;3.00;;;11.70;99.90;;;;;;4948135;28;20414;-64
2023/01/02 01:01:38;;;;;;;9.38;3.22;;;11.80;99.90;;;;;;4946138;28;20086;-65
2023/01/02 01:04:04;;;;;;;9.18;3.50;;;11.80;99.90;;;;;;4979908;28;20549;-65
2023/01/02 01:06:31;;;;;;;9.27;3.05;;;11.80;99.90;;;;;;4948174;29;20054;-65
2023/01/02 01:08:58;;;;;;;11.65;3.33;;;11.80;99.90;;;;;;4929857;29;20064;-65
2023/01/02 01:11:24;;;;;;;9.77;3.30;;;11.90;99.90;;;;;;4932186;29;20493;-65
2023/01/02 01:13:50;;;;;;;10.07;2.80;;;11.90;99.90;;;;;;4946021;28;20051;-65
2023/01/02 01:16:17;;;;;;;11.52;3.25;;;11.90;99.90;;;;;;4958214;28;20474;-64
2023/01/02 01:18:43;;;;;;;9.13;3.63;;;11.90;99.90;;;;;;4932679;29;20059;-66
2023/01/02 01:21:10;;;;;;;10.32;3.30;;;11.90;99.90;;;;;;4948061;28;20456;-65
2023/01/02 01:23:36;;;;;;;8.65;3.22;;;11.90;99.90;;;;;;4915819;29;20058;-65
2023/01/02 01:26:04;;;;;;;8.88;3.15;;;11.90;99.90;;;;;;4947860;28;20626;-64
2023/01/02 01:28:29;;;;;;;10.18;3.45;;;12.00;99.90;;;;;;4945704;28;20055;-64
2023/01/02 01:30:59;;;;;;;10.10;2.92;;;12.00;99.90;;;;;;4949060;29;20043;-64
2023/01/02 01:33:25;;;;;;;10.10;3.72;;;12.00;99.90;;;;;;4966599;28;20055;-64
2023/01/02 01:35:51;;;;;;;10.48;3.35;;;12.00;99.90;;;;;;4952242;28;20047;-64
2023/01/02 01:38:17;;;;;;;11.73;3.15;;;12.00;99.90;;;;;;4968302;28;20091;-64
2023/01/02 01:40:43;;;;;;;11.07;3.65;;;12.10;99.90;;;;;;4935240;28;20047;-65
2023/01/02 01:43:12;;;;;;;13.13;2.70;;;12.10;99.90;;;;;;4952355;28;20050;-64
2023/01/02 01:45:40;;;;;;;6.38;2.70;;;12.10;99.90;;;;;;4966994;28;20047;-65
2023/01/02 01:48:06;;;;;;;10.15;3.25;;;12.10;99.90;;;;;;4936441;29;20484;-65
2023/01/02 01:50:33;;;;;;;11.40;2.80;;;12.20;99.90;;;;;;4918877;28;20058;-65
2023/01/02 01:53:15;;;;;;;7.10;2.97;;;12.30;99.90;;;;;;4951652;29;20046;-66
2023/01/02 01:55:59;;;;;;;9.52;2.75;;;12.30;99.90;;;;;;4936934;29;20578;-64
2023/01/02 01:58:30;;;;;;;15.45;3.45;;;12.30;99.90;;;;;;4936239;28;20055;-65
2023/01/02 02:00:56;;;;;;;8.48;2.80;;;12.30;99.90;;;;;;4936358;29;20047;-65
2023/01/02 02:03:24;;;;;;;11.57;3.35;;;12.30;99.90;;;;;;4936682;28;20074;-64
2023/01/02 02:05:50;;;;;;;8.20;2.40;;;12.40;99.90;;;;;;4936224;29;20117;-65
2023/01/02 02:08:25;;;;;;;9.13;2.65;;;12.40;99.90;;;;;;4934981;28;20055;-64
2023/01/02 02:10:50;;;;;;;9.02;2.80;;;12.40;99.90;;;;;;4951783;29;20047;-65
2023/01/02 02:13:16;;;;;;;9.32;2.83;;;12.50;99.90;;;;;;4952396;29;20102;-66
2023/01/02 02:15:54;;;;;;;13.13;3.13;;;12.50;99.90;;;;;;4935557;29;20051;-65
2023/01/02 02:18:58;;;;;;;8.43;2.70;;;12.40;99.90;;;;;;4966011;28;20058;-64
2023/01/02 02:21:36;;;;;;;12.73;3.40;;;12.40;99.90;;;;;;4935138;29;20151;-64
2023/01/02 02:24:21;;;;;;;9.05;2.85;;;12.50;99.90;;;;;;4952116;29;20089;-64
2023/01/02 02:27:00;;;;;;;7.45;2.38;;;12.40;99.90;;;;;;4931489;29;20044;-65
2023/01/02 02:29:47;;;;;;;11.55;3.00;;;12.50;99.90;;;;;;4977838;28;20039;-65
2023/01/02 02:32:32;;;;;;;6.43;2.30;;;12.60;99.90;;;;;;4950435;29;20047;-64
2023/01/02 02:35:12;;;;;;;11.35;3.20;;;12.60;99.90;;;;;;4966418;28;20066;-63
2023/01/02 02:37:47;;;;;;;11.70;3.08;;;12.60;99.90;;;;;;4937463;29;20051;-64
2023/01/02 02:40:21;;;;;;;9.40;2.80;;;12.70;99.90;;;;;;4937652;29;20140;-64
2023/01/02 02:43:21;;;;;;;12.70;3.60;;;12.90;99.90;;;;;;4952932;28;20130;-64
2023/01/02 02:45:58;;;;;;;8.10;2.67;;;13.00;99.90;;;;;;4937333;29;20059;-63
2023/01/02 02:48:39;;;;;;;10.60;2.83;;;13.00;99.90;;;;;;4981700;28;20058;-65
2023/01/02 02:51:34;;;;;;;9.13;2.80;;;13.00;99.90;;;;;;4948863;29;20054;-64
2023/01/02 02:54:25;;;;;;;8.65;2.45;;;13.20;99.90;;;;;;4968632;28;20098;-64
2023/01/02 02:56:51;;;;;;;9.93;3.10;;;13.10;99.90;;;;;;4949580;29;20047;-63
2023/01/02 02:59:17;;;;;;;9.35;2.60;;;13.20;99.90;;;;;;4950909;28;20898;-65
2023/01/02 03:01:43;;;;;;;8.75;2.90;;;13.50;99.90;;;;;;4935179;29;20081;-65
2023/01/02 03:04:18;;;;;;;10.82;3.22;;;13.40;99.90;;;;;;4950528;29;20544;-65
2023/01/02 03:06:54;;;;;;;11.32;2.95;;;13.70;99.90;;;;;;4933798;29;20055;-64
2023/01/02 03:09:41;;;;;;;5.97;2.05;;;14.00;99.90;;;;;;4951030;29;20122;-65
2023/01/02 03:12:34;;;;;;;11.40;2.97;;;14.10;99.90;;;;;;4951775;28;20050;-65
2023/01/02 03:15:25;;;;;;;8.48;2.30;;;14.40;99.90;;;;;;4935601;29;20092;-66
2023/01/02 03:18:18;;;;;;;10.00;2.47;;;14.40;99.90;;;;;;4944957;29;20077;-64
2023/01/02 03:20:47;;;;;;;7.15;2.47;;;14.50;99.90;;;;;;4949910;28;20050;-64
2023/01/02 03:23:17;;;;;;;8.18;2.78;;;14.50;99.90;;;;;;4934954;29;20050;-64
2023/01/02 03:25:43;;;;;;;8.00;2.42;;;14.50;99.90;;;;;;4934357;28;20051;-64
2023/01/02 03:28:09;;;;;;;7.78;2.20;;;14.50;99.90;;;;;;4917305;29;20438;-64
2023/01/02 03:30:36;;;;;;;8.75;2.10;;;14.60;99.90;;;;;;4932389;28;20603;-64
2023/01/02 03:33:13;;;;;;;13.20;2.80;;;14.50;99.90;;;;;;4942817;28;20500;-66
2023/01/02 03:35:57;;;;;;;8.55;2.38;;;14.80;99.90;;;;;;4932156;29;20050;-64
2023/01/02 03:38:27;;;;;;;5.82;2.28;;;14.70;99.90;;;;;;4946375;28;20043;-66
2023/01/02 03:41:16;;;;;;;4.95;2.25;;;14.70;99.90;;;;;;4948450;28;20663;-64
2023/01/02 03:43:42;;;;;;;6.55;2.10;;;14.70;99.90;;;;;;4947009;28;20087;-65
2023/01/02 03:46:33;;;;;;;10.63;2.80;;;14.70;99.90;;;;;;4965062;28;20090;-63
2023/01/02 03:49:08;;;;;;;10.50;2.85;;;14.70;99.90;;;;;;4949527;28;20046;-65
2023/01/02 03:51:34;;;;;;;8.90;2.47;;;14.70;99.90;;;;;;4946418;29;20047;-64
2023/01/02 03:54:00;;;;;;;7.50;2.17;;;14.70;99.90;;;;;;4947858;28;20062;-66
2023/01/02 03:56:52;;;;;;;14.52;2.58;;;14.60;99.90;;;;;;4948081;28;20047;-66
2023/01/02 03:59:30;;;;;;;7.95;1.95;;;14.70;99.90;;;;;;4964650;28;20054;-65
2023/01/02 04:02:30;;;;;;;12.30;2.10;;;14.70;99.90;;;;;;4953819;28;20054;-65
2023/01/02 04:05:10;;;;;;;6.53;2.35;;;14.70;99.90;;;;;;4946505;28;20065;-64
2023/01/02 04:07:55;;;;;;;9.82;2.92;;;14.80;99.90;;;;;;4949177;28;20134;-64
2023/01/02 04:10:21;;;;;;;11.00;2.90;;;14.80;99.90;;;;;;4932229;28;20047;-65
2023/01/02 04:12:49;;;;;;;8.32;2.45;;;14.80;99.90;;;;;;4949570;28;20076;-64
2023/01/02 04:15:15;;;;;;;14.60;2.50;;;14.70;99.90;;;;;;4950131;28;20477;-65
2023/01/02 04:17:45;;;;;;;10.23;3.22;;;14.70;99.90;;;;;;4933330;29;20544;-64
2023/01/02 04:20:15;;;;;;;8.88;2.38;;;14.70;99.90;;;;;;4949998;28;20559;-64
2023/01/02 04:23:01;;;;;;;12.15;2.50;;;14.80;99.90;;;;;;4933506;28;20158;-64
2023/01/02 04:25:30;;;;;;;8.07;2.50;;;14.80;99.90;;;;;;4933809;29;20492;-64
2023/01/02 04:28:16;;;;;;;8.48;2.47;;;14.80;99.90;;;;;;4934271;29;20051;-64
2023/01/02 04:30:45;;;;;;;7.47;2.40;;;14.80;99.90;;;;;;4932219;28;20102;-65
2023/01/02 04:33:10;;;;;;;;;;;14.90;99.90;;;;;;4934305;29;20043;-65
2023/01/02 04:35:36;;;;;;;6.13;2.10;;;14.80;99.90;;;;;;4930628;29;19930;-65
2023/01/02 04:38:07;;;;;;;9.98;2.78;;;14.80;99.90;;;;;;4934021;29;20051;-65
2023/01/02 04:40:36;;;;;;;9.27;2.45;;;14.80;99.90;;;;;;4931541;29;20055;-64
2023/01/02 04:43:19;;;;;;;12.45;2.65;;;14.80;99.90;;;;;;4949594;29;20565;-65
2023/01/02 04:45:48;;;;;;;11.75;2.60;;;14.80;99.90;;;;;;4934586;29;20043;-64
2023/01/02 04:48:14;;;;;;;13.95;2.67;;;14.80;99.90;;;;;;4982438;28;20047;-65
2023/01/02 04:50:39;;;;;;;9.32;2.55;;;14.80;99.90;;;;;;4948159;28;20053;-63
2023/01/02 04:53:05;;;;;;;7.07;2.65;;;14.80;99.90;;;;;;4949239;29;20529;-64
2023/01/02 04:55:31;;;;;;;13.82;2.80;;;14.80;99.90;;;;;;4965434;28;20505;-64
2023/01/02 04:57:57;;;;;;;11.13;2.22;;;14.80;99.90;;;;;;4944970;28;20421;-65
2023/01/02 05:00:23;;;;;;;8.95;2.97;;;14.70;99.90;;;;;;4946272;28;20055;-63
2023/01/02 05:02:48;;;;;;;8.45;2.38;;;14.80;99.90;;;;;;4932921;29;20126;-65
2023/01/02 05:05:14;;;;;;;9.98;2.72;;;14.80;99.90;;;;;;4949013;29;20079;-64
2023/01/02 05:07:40;;;;;;;10.80;2.70;;;14.80;99.90;;;;;;4965717;28;20110;-68
2023/01/02 05:10:06;;;;;;;7.28;2.13;;;14.80;99.90;;;;;;4968249;28;20075;-66
2023/01/02 05:12:33;;;;;;;9.48;3.10;;;14.80;99.90;;;;;;4954097;28;20143;-64
2023/01/02 05:14:59;;;;;;;8.55;2.80;;;14.70;99.90;;;;;;4938518;29;20485;-64
2023/01/02 05:17:25;;;;;;;8.70;3.00;;;14.70;99.90;;;;;;4953654;29;20051;-64
2023/01/02 05:19:51;;;;;;;10.07;2.60;;;14.80;99.90;;;;;;4952265;28;20194;-65
2023/01/02 05:25:00;;;;;;;8.98;2.35;;;14.70;99.90;;;;;;4938131;29;20046;-66
2023/01/02 05:27:26;;;;;;;8.55;2.53;;;14.70;99.90;;;;;;4952153;29;20050;-64
2023/01/02 05:29:52;;;;;;;12.63;2.90;;;14.80;99.90;;;;;;4948881;28;20051;-65
2023/01/02 05:32:18;;;;;;;11.20;2.63;;;14.70;99.90;;;;;;4932598;29;20179;-64
2023/01/02 05:34:43;;;;;;;11.27;2.60;;;14.70;99.90;;;;;;4932693;29;20055;-64
2023/01/02 05:37:09;;;;;;;10.55;2.70;;;14.60;99.90;;;;;;4952097;28;20054;-65
2023/01/02 05:39:35;;;;;;;12.10;2.10;;;14.60;99.90;;;;;;4952420;29;20047;-64
2023/01/02 05:42:00;;;;;;;11.65;2.58;;;14.60;99.90;;;;;;4937044;29;20472;-65
2023/01/02 05:44:26;;;;;;;8.98;2.75;;;14.60;99.90;;;;;;4935520;29;20110;-65
2023/01/02 05:46:52;;;;;;;8.77;2.70;;;14.60;99.90;;;;;;4953314;28;20082;-65
2023/01/02 05:49:18;;;;;;;11.02;3.08;;;14.60;99.90;;;;;;4951842;28;20079;-65
2023/01/02 05:51:43;;;;;;;11.30;2.45;;;14.50;99.90;;;;;;4952774;29;20077;-65
2023/01/02 05:54:09;;;;;;;9.35;2.58;;;14.50;99.90;;;;;;4950920;28;20054;-65
2023/01/02 05:56:35;;;;;;;8.82;2.22;;;14.50;99.90;;;;;;4936630;29;20059;-65
2023/01/02 05:59:00;;;;;;;7.28;2.40;;;14.50;99.90;;;;;;4935600;29;20105;-65
2023/01/02 06:01:30;;;;;;;8.10;2.58;;;14.50;99.90;;;;;;4951963;29;20508;-64
2023/01/02 06:03:57;;;;;;;6.13;2.30;;;14.50;99.90;;;;;;4951587;28;20059;-64
2023/01/02 06:06:24;;;;;;;6.45;2.40;;;14.50;99.90;;;;;;4936104;29;20058;-64
2023/01/02 06:08:50;;;;;;;14.00;3.27;;;14.50;99.90;;;;;;4929826;29;20058;-65
2023/01/02 06:11:16;;;;;;;13.63;2.53;;;14.50;99.90;;;;;;4951676;29;20051;-64
2023/01/02 06:13:42;;;;;;;8.90;2.30;;;14.50;99.90;;;;;;4948062;28;20130;-65
2023/01/02 06:16:08;;;;;;;12.70;2.72;;;14.50;99.90;;;;;;4967542;28;20134;-64
2023/01/02 06:18:34;;;;;;;8.55;2.42;;;14.40;99.90;;;;;;4950707;28;20167;-65
2023/01/02 06:21:05;;;;;;;10.45;2.55;;;14.50;99.90;;;;;;4950198;28;20465;-66
2023/01/02 06:23:30;;;;;;;8.60;2.38;;;14.50;99.90;;;;;;4930288;29;20051;-64
2023/01/02 06:26:05;;;;;;;11.45;3.33;;;14.50;99.90;;;;;;4952691;28;20058;-65
2023/01/02 06:28:30;;;;;;;8.57;2.38;;;14.60;99.90;;;;;;4935766;28;20047;-64
2023/01/02 06:31:04;;;;;;;9.50;2.88;;;14.60;99.90;;;;;;4948824;28;20487;-65
2023/01/02 06:33:30;;;;;;;10.05;3.08;;;14.50;99.90;;;;;;4951993;28;20047;-65
2023/01/02 06:35:59;;;;;;;9.88;2.85;;;14.50;99.90;;;;;;4934108;29;20146;-64
2023/01/02 06:38:26;;;;;;;9.20;2.88;;;14.50;99.90;;;;;;4935690;29;20043;-64
2023/01/02 06:40:55;;;;;;;13.02;3.00;;;14.50;99.90;;;;;;4950550;28;20103;-64
2023/01/02 06:43:21;;;;;;;12.70;2.90;;;14.50;99.90;;;;;;4951247;28;20156;-64
2023/01/02 06:45:47;;;;;;;11.98;2.83;;;14.50;99.90;;;;;;4935342;29;20055;-64
2023/01/02 06:48:13;;;;;;;12.85;2.90;;;14.50;99.90;;;;;;4950444;28;20453;-65
2023/01/02 06:50:38;;;;;;;10.43;2.20;;;14.50;99.90;;;;;;4966788;28;20098;-66
2023/01/02 06:53:04;;;;;;;10.20;2.67;;;14.50;99.90;;;;;;4950900;29;20046;-64
2023/01/02 06:55:30;;;;;;;8.68;2.72;;;14.50;99.90;;;;;;4951419;28;20054;-65
2023/01/02 06:57:56;;;;;;;14.80;3.22;;;14.50;99.90;;;;;;4934999;29;20047;-64
2023/01/02 07:00:21;;;;;;;10.50;3.20;;;14.60;99.90;;;;;;4948956;28;20047;-66
2023/01/02 07:02:47;;;;;;;14.43;2.58;;;14.60;99.90;;;;;;4961589;28;20059;-65
2023/01/02 07:05:13;;;;;;;9.23;2.38;;;14.50;99.90;;;;;;4950991;29;20096;-64
2023/01/02 07:07:39;;;;;;;12.32;2.25;;;14.50;99.90;;;;;;4949830;28;20043;-66
2023/01/02 07:10:05;;;;;;;9.90;2.30;;;14.40;99.90;;;;;;4933458;29;20139;-65
2023/01/02 07:12:34;;;;;;;10.82;2.88;;;14.50;99.90;;;;;;4935182;29;20047;-65
2023/01/02 07:14:59;;;;;;;10.63;2.60;;;14.50;99.90;;;;;;4950653;28;20047;-63
2023/01/02 07:17:25;;;;;;;9.73;2.53;;;14.40;99.90;;;;;;4965657;28;20042;-65
2023/01/02 07:19:51;;;;;;;9.75;2.67;;;14.30;99.90;;;;;;4946618;28;20051;-65
2023/01/02 07:22:16;;;;;;;10.90;2.80;;;14.30;99.90;;;;;;4968081;28;20047;-65
2023/01/02 07:24:42;;;;;;;11.68;2.88;;;14.20;99.90;;;;;;4949061;28;20083;-65
2023/01/02 07:27:08;;;;;;;17.45;3.30;;;14.30;99.90;;;;;;4952074;28;20211;-63
2023/01/02 07:29:33;;;;;;;10.75;3.45;;;14.30;99.90;;;;;;4933895;29;20464;-64
2023/01/02 07:31:59;;;;;;;12.00;3.28;;;14.40;99.90;;;;;;4983351;28;20047;-64
2023/01/02 07:34:25;;;;;;;13.18;4.10;;;14.40;99.90;;;;;;4950192;29;20607;-64
2023/01/02 07:36:51;;;;;;;15.80;2.90;;;14.50;99.90;;;;;;4950288;29;20051;-65
2023/01/02 07:39:16;;;;;;;10.40;3.75;;;14.40;99.90;;;;;;4965918;28;20053;-65
2023/01/02 07:41:42;;;;;;;25.05;4.90;;;14.40;99.90;;;;;;4950414;29;20074;-64
2023/01/02 07:44:08;;;;;;;9.15;2.95;;;14.40;99.90;;;;;;4949326;29;20083;-64
2023/01/02 07:46:33;;;;;;;11.70;3.33;;;14.40;99.90;;;;;;4966274;28;20165;-64
2023/01/02 07:48:59;;;;;;;13.75;3.58;;;14.40;99.90;;;;;;4949836;29;20059;-64
2023/01/02 07:51:25;;;;;;;10.93;2.83;;;14.40;99.90;;;;;;4934820;29;20479;-65
2023/01/02 07:53:51;;;;;;;11.18;2.60;;;14.40;99.90;;;;;;4967625;28;20063;-63
2023/01/02 07:56:16;;;;;;;8.43;2.95;;;14.30;99.90;;;;;;4933628;28;20055;-64
2023/01/02 07:58:42;;;;;;;10.43;3.15;;;14.30;99.90;;;;;;4949996;29;20101;-64
2023/01/02 08:01:09;;;;;;;10.98;2.65;;;14.30;99.90;;;;;;4980662;28;20583;-63
2023/01/02 08:03:35;;;;;;;8.65;2.80;;;14.30;99.90;;;;;;4934274;29;20143;-64
2023/01/02 08:06:11;;;;;;;8.80;3.03;;;14.30;99.90;;;;;;4949308;28;20051;-63
2023/01/02 08:08:37;;;;;;;10.63;3.30;;;14.40;99.90;;;;;;4933618;29;20047;-64
2023/01/02 08:11:17;;;;;;;10.60;2.95;;;14.40;99.90;;;;;;4947245;28;20043;-65
2023/01/02 08:13:43;;;;;;;11.70;2.80;;;14.50;99.90;;;;;;4931504;29;20048;-64
2023/01/02 08:16:10;;;;;;;11.45;2.70;;;14.40;99.90;;;;;;4977734;28;20055;-64
2023/01/02 08:18:36;;;;;;;12.20;3.90;;;14.40;99.90;;;;;;4948409;28;20050;-72
2023/01/02 08:21:02;;;;;;;16.65;3.28;;;14.40;99.90;;;;;;4933753;29;20097;-70
2023/01/02 08:23:28;;;;;;;12.25;2.90;;;14.50;99.90;;;;;;4949593;28;20054;-71
2023/01/02 08:26:00;;;;;;;9.35;2.22;;;14.50;99.90;;;;;;4932493;29;20050;-71
2023/01/02 08:28:26;;;;;;;8.32;2.67;;;14.40;99.90;;;;;;4933339;29;20078;-71
2023/01/02 08:30:52;;;;;;;11.70;3.45;;;14.50;99.90;;;;;;4950020;28;20047;-71
2023/01/02 08:33:18;;;;;;;9.73;2.70;;;14.50;99.90;;;;;;4949439;29;20536;-74
2023/01/02 08:35:44;;;;;;;14.60;3.17;;;14.50;99.90;;;;;;4942969;29;20475;-72
2023/01/02 08:38:09;;;;;;;9.73;3.35;;;14.50;99.90;;;;;;4917108;29;20053;-72
2023/01/02 08:40:35;;;;;;;12.75;3.40;;;14.50;99.90;;;;;;4955738;28;20074;-72
2023/01/02 08:43:01;;;;;;;9.57;3.10;;;14.50;99.90;;;;;;4958609;28;20109;-72
2023/01/02 08:45:27;;;;;;;11.18;3.10;;;14.60;99.90;;;;;;4948035;29;20047;-71
2023/01/02 08:47:52;;;;;;;9.48;2.80;;;14.70;99.90;;;;;;4961715;28;20087;-72
2023/01/02 08:50:18;;;;;;;16.75;3.10;;;14.60;99.90;;;;;;4942734;29;20052;-72
2023/01/02 08:52:44;;;;;;;7.68;2.70;;;14.70;99.90;;;;;;4945555;29;20374;-72
2023/01/02 08:55:10;;;;;;;10.60;2.83;;;14.70;99.90;;;;;;4961506;28;20054;-73
2023/01/02 08:57:36;;;;;;;12.05;2.83;;;14.60;99.90;;;;;;4963310;28;20055;-73
2023/01/02 09:00:03;;;;;;;8.82;2.80;;;14.70;99.90;;;;;;4950781;28;20059;-74
2023/01/02 09:02:28;;;;;;;7.50;2.15;;;14.70;99.90;;;;;;4982441;28;20117;-71
2023/01/02 09:04:54;;;;;;;9.43;2.20;;;14.70;99.90;;;;;;4928915;29;20047;-72
2023/01/02 09:07:20;;;;;;;12.00;2.22;;;14.70;99.90;;;;;;4921323;28;20050;-72
2023/01/02 09:09:46;;;;;;;10.40;2.50;;;14.60;99.90;;;;;;4948581;28;20845;-72
2023/01/02 09:12:11;;;;;;;12.57;3.00;;;14.60;99.90;;;;;;4946578;28;20048;-72
2023/01/02 09:14:37;;;;;;;11.65;3.15;;;14.60;99.90;;;;;;4948369;29;20083;-73
2023/01/02 09:17:03;;;;;;;8.48;2.45;;;14.70;99.90;;;;;;4946905;28;20118;-71
2023/01/02 09:19:29;;;;;;;11.48;2.50;;;14.60;99.90;;;;;;4962634;28;20063;-72
2023/01/02 09:21:55;;;;;;;9.32;2.13;;;14.60;99.90;;;;;;4950509;29;20200;-71
2023/01/02 09:24:20;;;;;;;12.70;2.97;;;14.60;99.90;;;;;;4934594;29;20125;-72
2023/01/02 09:26:46;;;;;;;8.88;2.50;;;14.70;99.90;;;;;;4952739;29;20055;-71
2023/01/02 09:29:12;;;;;;;11.43;2.90;;;14.60;99.90;;;;;;4952786;29;20460;-72
2023/01/02 09:31:38;;;;;;;14.45;3.22;;;14.60;99.90;;;;;;4936982;29;20231;-71
2023/01/02 09:34:04;;;;;;;9.18;2.38;;;14.50;99.90;;;;;;4937022;29;20541;-72
2023/01/02 09:36:31;;;;;;;10.50;2.90;;;14.60;99.90;;;;;;4953029;29;20513;-72
2023/01/02 09:38:58;;;;;;;8.90;2.63;;;14.60;99.90;;;;;;4937028;29;20384;-72
2023/01/02 09:41:57;;;;;;;;;;;;;;;;;;;;;
2023/01/02 09:44:44;;;;;;;7.95;2.40;;;14.60;99.90;;;;;;4971835;28;20051;-73
2023/01/02 09:47:10;;;;;;;7.68;2.10;;;14.70;99.90;;;;;;4949917;28;20149;-72
2023/01/02 09:49:44;;;;;;;6.38;2.17;;;14.60;99.90;;;;;;4954071;29;20075;-72
2023/01/02 09:52:21;;;;;;;9.20;2.80;;;14.60;99.90;;;;;;4933299;29;20184;-73
2023/01/02 09:54:47;;;;;;;10.75;2.40;;;14.70;99.90;;;;;;4953025;28;20062;-72
2023/01/02 09:57:21;;;;;;;11.50;2.30;;;14.70;99.90;;;;;;4968248;28;20047;-72
2023/01/02 09:59:47;;;;;;;7.90;2.15;;;14.60;99.90;;;;;;4952544;29;20047;-72
2023/01/02 10:02:18;;;;;;;13.60;2.25;;;14.80;99.90;;;;;;4950765;29;20134;-72
2023/01/02 10:05:21;;;;;;;11.10;2.67;;;14.90;99.90;;;;;;4936564;29;20047;-72
2023/01/02 10:07:49;;;;;;;11.25;2.85;;;15.00;99.90;;;;;;4953836;29;20051;-71
2023/01/02 10:10:38;;;;;;;9.43;2.63;;;14.90;99.90;;;;;;4984296;28;20130;-72
2023/01/02 10:13:13;;;;;;;6.10;2.00;;;14.90;99.90;;;;;;4933409;29;20191;-72
2023/01/02 10:15:43;;;;;;;10.98;2.75;;;14.90;99.90;;;;;;4952371;29;20051;-72
2023/01/02 10:18:20;;;;;;;9.40;2.58;;;14.90;99.90;;;;;;4935964;29;20666;-71
2023/01/02 10:20:52;;;;;;;7.00;2.33;;;14.90;99.90;;;;;;4952967;29;20051;-72
2023/01/02 10:23:24;;;;;;;9.73;2.67;;;14.90;99.90;;;;;;4937134;29;20290;-71
2023/01/02 10:25:56;;;;;;;8.98;2.55;;;14.90;99.90;;;;;;4936329;29;20058;-71
2023/01/02 10:28:40;;;;;;;13.60;2.72;;;14.90;99.90;;;;;;4982971;28;20047;-72
2023/01/02 10:31:28;;;;;;;8.93;2.55;;;14.80;99.90;;;;;;4951528;28;20043;-71
2023/01/02 10:33:58;;;;;;;;;;;14.80;99.90;;;;;;4936635;29;20758;-73
2023/01/02 10:36:32;;;;;;;5.90;2.65;;;14.80;99.90;;;;;;4967586;28;20248;-71
2023/01/02 10:39:23;;;;;;;11.65;2.95;;;14.80;99.90;;;;;;4951918;29;20051;-71
2023/01/02 10:41:56;;;;;;;7.95;2.10;;;14.80;99.90;;;;;;4935786;29;20051;-71
2023/01/02 10:44:32;;;;;;;8.15;2.63;;;14.80;99.90;;;;;;4935379;29;20058;-71
2023/01/02 10:46:57;;;;;;;9.27;2.40;;;14.70;99.90;;;;;;4952252;28;20047;-70
2023/01/02 10:49:23;;;;;;;10.55;2.33;;;14.70;99.90;;;;;;4951541;29;20572;-72
2023/01/02 10:52:02;;;;;;;9.35;2.72;;;14.70;99.90;;;;;;4933436;29;20047;-70
2023/01/02 10:54:27;;;;;;;;;;;14.70;99.90;;;;;;4968346;28;20457;-71
2023/01/02 10:56:53;;;;;;;8.73;2.35;;;14.70;99.90;;;;;;4983128;28;20001;-71
2023/01/02 10:59:27;;;;;;;8.93;2.38;;;14.70;99.90;;;;;;4951478;29;20079;-71
2023/01/02 11:01:57;;;;;;;9.68;2.40;;;14.70;99.90;;;;;;4950961;28;20059;-72
2023/01/02 11:04:24;;;;;;;9.10;2.40;;;14.70;99.90;;;;;;4934624;29;20106;-71
2023/01/02 11:07:01;;;;;;;8.50;2.63;;;14.70;99.90;;;;;;4934860;29;20116;-72
2023/01/02 11:09:32;;;;;;;10.30;2.63;;;14.70;99.90;;;;;;4936058;29;20047;-72
2023/01/02 11:12:11;;;;;;;9.73;2.67;;;14.60;99.90;;;;;;4950260;28;20485;-70
2023/01/02 11:14:37;;;;;;;11.73;2.33;;;14.70;99.90;;;;;;4935596;29;20059;-72
2023/01/02 11:17:06;;;;;;;6.93;2.10;;;14.60;99.90;;;;;;4935028;29;20047;-72
2023/01/02 11:19:37;;;;;;;;;;;14.60;99.90;;;;;;4951735;29;20076;-73
2023/01/02 11:22:03;;;;;;;19.17;3.47;;;14.60;99.90;;;;;;4947326;28;19922;-71
2023/01/02 11:24:31;;;;;;;11.48;3.15;;;14.60;99.90;;;;;;4950868;28;20059;-73
2023/01/02 11:26:57;;;;;;;9.43;2.40;;;14.50;99.90;;;;;;4935657;29;20048;-73
2023/01/02 11:29:29;;;;;;;11.30;2.60;;;14.50;99.90;;;;;;4933947;28;20055;-72
2023/01/02 11:31:56;;;;;;;10.55;2.80;;;14.50;99.90;;;;;;4950809;29;20054;-75
2023/01/02 11:34:24;;;;;;;7.00;1.92;;;14.40;99.90;;;;;;4951194;29;20051;-73
2023/01/02 11:37:10;;;;;;;8.68;2.42;;;14.30;99.90;;;;;;4951053;28;20049;-73
2023/01/02 11:39:36;;;;;;;10.07;2.60;;;13.70;99.90;;;;;;4967422;28;20062;-72
2023/01/02 11:45:18;;;;;;;9.45;2.10;;;13.30;99.90;;;;;;4951914;29;20477;-72
2023/01/02 11:47:45;;;;;;;9.57;2.47;;;13.20;99.90;;;;;;4934648;29;20058;-72
2023/01/02 11:50:20;;;;;;;7.60;2.75;;;13.10;99.90;;;;;;4949973;29;20049;-72
2023/01/02 11:52:51;;;;;;;6.88;1.83;;;13.20;99.90;;;;;;4949775;29;20343;-74
2023/01/02 11:55:33;;;;;;;7.20;2.25;;;13.20;99.90;;;;;;4950789;28;20066;-72
2023/01/02 11:58:38;;;;;;;9.48;1.88;;;13.20;99.90;;;;;;4963661;28;20051;-72
2023/01/02 12:01:14;;;;;;;10.27;1.92;;;13.10;99.90;;;;;;4960976;28;20062;-72
2023/01/02 12:03:40;;;;;;;7.35;1.98;;;13.10;99.90;;;;;;4934917;29;20142;-72
2023/01/02 12:06:06;;;;;;;5.93;1.63;;;13.10;99.90;;;;;;4949992;29;20358;-72
2023/01/02 12:08:53;;;;;;;5.30;1.70;;;13.10;99.90;;;;;;4950623;28;20042;-72
2023/01/02 12:11:24;;;;;;;7.60;2.33;;;13.20;99.90;;;;;;4945823;29;20055;-73
2023/01/02 12:14:09;;;;;;;3.63;1.40;;;13.20;99.90;;;;;;4950866;29;20066;-67
2023/01/02 12:16:44;;;;;;;5.45;1.90;;;13.10;99.90;;;;;;4966033;28;20080;-67
2023/01/02 12:19:34;;;;;;;7.10;1.88;;;13.10;99.90;;;;;;4965145;28;20705;-68
2023/01/02 12:22:36;;;;;;;5.45;1.40;;;13.10;99.90;;;;;;4937023;28;20050;-69
2023/01/02 12:25:14;;;;;;;4.80;1.58;;;13.10;99.90;;;;;;4945832;28;20094;-70
2023/01/02 12:27:49;;;;;;;5.00;1.38;;;13.20;99.90;;;;;;4945811;29;20558;-70
2023/01/02 12:30:19;;;;;;;5.68;1.50;;;13.10;99.90;;;;;;4960463;28;20057;-70
2023/01/02 12:33:15;;;;;;;4.47;1.23;;;13.20;99.90;;;;;;4945707;28;20133;-70
2023/01/02 12:35:59;;;;;;;3.50;1.23;;;13.10;99.90;;;;;;4946330;29;20047;-70
2023/01/02 12:38:36;;;;;;;6.15;1.45;;;13.10;99.90;;;;;;4960064;28;20074;-69
2023/01/02 12:41:02;;;;;;;4.03;1.20;;;13.10;99.90;;;;;;4947294;29;20046;-70
2023/01/02 12:44:19;;;;;;;2.53;1.10;;;13.10;99.90;;;;;;4948870;29;20047;-71
2023/01/02 12:47:09;;;;;;;7.15;1.13;;;13.10;99.90;;;;;;4935261;29;20047;-70
2023/01/02 12:50:00;;;;;;;3.85;1.13;;;13.00;99.90;;;;;;4942805;29;20043;-70
2023/01/02 12:52:51;;;;;;;4.28;1.40;;;13.00;99.90;;;;;;4947315;29;20215;-70
2023/01/02 12:55:37;;;;;;;2.50;1.08;;;13.00;99.90;;;;;;4947213;28;20529;-70
2023/01/02 12:58:15;;;;;;;4.80;1.08;;;12.90;99.90;;;;;;4947274;29;20055;-69
2023/01/02 13:01:03;;;;;;;5.05;1.20;;;12.90;99.90;;;;;;4931952;29;20098;-69
2023/01/02 13:03:46;;;;;;;5.93;1.30;;;12.80;99.90;;;;;;4939698;28;20043;-70
2023/01/02 13:06:23;;;;;;;3.10;1.08;;;12.70;99.90;;;;;;4932036;28;20122;-70
2023/01/02 13:08:56;;;;;;;3.85;1.35;;;12.70;99.90;;;;;;4929750;29;20509;-70
2023/01/02 13:11:28;;;;;;;3.13;1.42;;;12.60;99.90;;;;;;4941142;28;20051;-69